createdAt,value
2022-08-23T00:00:13.306Z,4.88
2022-08-23T00:02:43.597Z,2.53
2022-08-23T00:05:12.801Z,3.40
2022-08-23T00:07:43.606Z,2.58
2022-08-23T00:10:15.604Z,3.58
2022-08-23T00:12:45.311Z,2.78
2022-08-23T00:15:16.751Z,3.17
2022-08-23T00:17:46.216Z,2.85
2022-08-23T00:20:20.230Z,3.28
2022-08-23T00:22:48.773Z,3.17
2022-08-23T00:25:17.107Z,3.53
2022-08-23T00:27:48.967Z,2.88
2022-08-23T00:30:19.108Z,2.85
2022-08-23T00:32:49.888Z,3.05
2022-08-23T00:35:27.030Z,2.35
2022-08-23T00:38:33.423Z,2.63
2022-08-23T00:40:51.013Z,3.95
2022-08-23T00:43:43.135Z,2.83
2022-08-23T00:46:39.649Z,4.88
2022-08-23T00:49:14.003Z,4.32
2022-08-23T00:51:52.276Z,2.92
2022-08-23T00:54:24.446Z,3.08
2022-08-23T00:56:54.520Z,3.40
2022-08-23T00:59:23.879Z,2.78
2022-08-23T01:01:52.604Z,4.63
2022-08-23T01:04:22.774Z,3.25
2022-08-23T01:06:58.303Z,3.47
2022-08-23T01:09:27.127Z,3.78
2022-08-23T01:12:04.531Z,2.60
2022-08-23T01:14:39.724Z,3.70
2022-08-23T01:17:13.740Z,3.67
2022-08-23T01:19:51.714Z,3.75
2022-08-23T01:22:28.335Z,3.42
2022-08-23T01:25:06.078Z,4.03
2022-08-23T01:27:39.803Z,4.45
2022-08-23T01:30:11.715Z,3.65
2022-08-23T01:32:45.548Z,3.55
2022-08-23T01:35:16.655Z,5.30
2022-08-23T01:37:46.339Z,3.25
2022-08-23T01:40:16.133Z,3.13
2022-08-23T01:42:45.318Z,4.95
2022-08-23T01:45:15.626Z,4.13
2022-08-23T01:47:43.854Z,3.78
2022-08-23T01:50:14.071Z,4.97
2022-08-23T01:52:46.983Z,3.13
2022-08-23T01:55:19.562Z,3.92
2022-08-23T01:57:54.379Z,3.28
2022-08-23T02:00:29.879Z,3.60
2022-08-23T02:02:59.381Z,2.90
2022-08-23T02:05:28.565Z,3.20
2022-08-23T02:07:57.220Z,4.25
2022-08-23T02:10:26.803Z,3.42
2022-08-23T02:12:56.521Z,2.90
2022-08-23T02:15:24.787Z,3.92
2022-08-23T02:17:55.110Z,3.65
2022-08-23T02:20:23.631Z,3.20
2022-08-23T02:22:51.876Z,4.68
2022-08-23T02:25:20.265Z,3.40
2022-08-23T02:27:49.763Z,4.05
2022-08-23T02:30:18.014Z,3.13
2022-08-23T02:32:46.229Z,3.10
2022-08-23T02:35:16.374Z,3.58
2022-08-23T02:37:44.628Z,3.42
2022-08-23T02:40:13.254Z,2.85
2022-08-23T02:42:41.854Z,3.20
2022-08-23T02:45:13.186Z,3.30
2022-08-23T02:47:46.820Z,6.80
2022-08-23T02:50:28.351Z,3.92
2022-08-23T02:52:58.403Z,4.60
2022-08-23T02:55:28.955Z,4.30
2022-08-23T02:57:57.169Z,3.38
2022-08-23T03:00:27.637Z,4.10
2022-08-23T03:02:56.179Z,4.72
2022-08-23T03:05:24.708Z,3.50
2022-08-23T03:07:52.897Z,3.33
2022-08-23T03:10:22.814Z,3.30
2022-08-23T03:12:57.086Z,4.07
2022-08-23T03:15:25.174Z,3.90
2022-08-23T03:17:54.869Z,3.15
2022-08-23T03:20:23.559Z,3.67
2022-08-23T03:22:54.656Z,3.55
2022-08-23T03:25:27.150Z,3.13
2022-08-23T03:28:05.777Z,4.30
2022-08-23T03:30:36.098Z,3.38
2022-08-23T03:33:07.027Z,3.40
2022-08-23T03:35:35.383Z,3.78
2022-08-23T03:38:05.134Z,3.22
2022-08-23T03:40:33.486Z,3.10
2022-08-23T03:43:02.461Z,4.70
2022-08-23T03:45:32.210Z,6.00
2022-08-23T03:48:01.415Z,3.20
2022-08-23T03:50:31.228Z,3.20
2022-08-23T03:52:59.525Z,3.33
2022-08-23T03:55:27.726Z,4.63
2022-08-23T03:57:58.177Z,3.22
2022-08-23T04:00:27.366Z,4.13
2022-08-23T04:02:56.178Z,4.18
2022-08-23T04:05:26.711Z,3.42
2022-08-23T04:08:02.518Z,3.53
2022-08-23T04:10:30.939Z,4.57
2022-08-23T04:12:59.306Z,3.80
2022-08-23T04:15:27.683Z,3.10
2022-08-23T04:17:55.902Z,4.22
2022-08-23T04:20:25.839Z,6.40
2022-08-23T04:23:03.043Z,4.40
2022-08-23T04:25:35.955Z,4.65
2022-08-23T04:28:06.483Z,6.38
2022-08-23T04:30:35.546Z,5.15
2022-08-23T04:33:09.979Z,5.50
2022-08-23T04:35:41.342Z,4.97
2022-08-23T04:38:18.271Z,3.75
2022-08-23T04:41:13.233Z,6.05
2022-08-23T04:43:43.939Z,7.30
2022-08-23T04:46:15.590Z,4.75
2022-08-23T04:48:47.266Z,6.13
2022-08-23T04:51:16.857Z,5.20
2022-08-23T04:53:46.693Z,4.75
2022-08-23T04:56:40.483Z,3.22
2022-08-23T04:59:13.097Z,3.90
2022-08-23T05:01:42.869Z,4.32
2022-08-23T05:04:11.772Z,5.35
2022-08-23T05:06:41.480Z,4.38
2022-08-23T05:09:11.013Z,4.20
2022-08-23T05:11:39.374Z,6.22
2022-08-23T05:14:08.207Z,5.22
2022-08-23T05:16:36.565Z,3.65
2022-08-23T05:19:10.387Z,4.90
2022-08-23T05:21:44.480Z,3.67
2022-08-23T05:24:14.556Z,6.90
2022-08-23T05:26:44.644Z,4.70
2022-08-23T05:29:13.161Z,3.08
2022-08-23T05:31:50.006Z,3.17
2022-08-23T05:34:22.370Z,4.70
2022-08-23T05:36:56.200Z,5.28
2022-08-23T05:39:36.691Z,4.57
2022-08-23T05:42:08.365Z,6.47
2022-08-23T05:44:37.266Z,4.10
2022-08-23T05:47:10.810Z,4.75
2022-08-23T05:49:46.207Z,5.72
2022-08-23T05:52:15.529Z,6.55
2022-08-23T05:54:46.743Z,7.13
2022-08-23T05:57:36.602Z,4.85
2022-08-23T06:00:08.818Z,5.53
2022-08-23T06:02:47.133Z,4.38
2022-08-23T06:05:16.180Z,3.72
2022-08-23T06:07:46.388Z,3.63
2022-08-23T06:10:16.553Z,3.58
2022-08-23T06:12:50.754Z,4.30
2022-08-23T06:15:19.181Z,4.07
2022-08-23T06:17:48.334Z,3.40
2022-08-23T06:20:17.180Z,5.15
2022-08-23T06:23:03.406Z,4.50
2022-08-23T06:25:36.874Z,3.47
2022-08-23T06:28:11.475Z,3.45
2022-08-23T06:30:40.895Z,5.20
2022-08-23T06:33:20.621Z,3.28
2022-08-23T06:35:49.122Z,5.43
2022-08-23T06:38:37.356Z,5.97
2022-08-23T06:41:14.691Z,3.30
2022-08-23T06:43:51.807Z,6.20
2022-08-23T06:46:56.410Z,3.85
2022-08-23T06:49:27.618Z,5.20
2022-08-23T06:51:59.952Z,4.07
2022-08-23T06:54:39.244Z,3.95
2022-08-23T06:57:42.678Z,3.15
2022-08-23T07:00:29.359Z,3.17
2022-08-23T07:03:13.539Z,4.22
2022-08-23T07:06:00.152Z,4.57
2022-08-23T07:08:30.902Z,4.57
2022-08-23T07:11:00.021Z,5.63
2022-08-23T07:13:29.628Z,6.22
2022-08-23T07:16:03.097Z,4.68
2022-08-23T07:18:33.604Z,3.35
2022-08-23T07:21:05.156Z,8.45
2022-08-23T07:23:36.394Z,3.60
2022-08-23T07:26:11.449Z,4.60
2022-08-23T07:28:43.774Z,6.00
2022-08-23T07:31:16.288Z,5.25
2022-08-23T07:33:47.782Z,4.03
2022-08-23T07:36:22.932Z,4.65
2022-08-23T07:38:51.913Z,5.03
2022-08-23T07:41:24.058Z,3.75
2022-08-23T07:43:54.965Z,2.92
2022-08-23T07:46:23.199Z,4.05
2022-08-23T07:48:54.850Z,3.53
2022-08-23T07:51:35.087Z,2.75
2022-08-23T07:54:04.945Z,4.07
2022-08-23T07:56:35.479Z,3.08
2022-08-23T07:59:11.512Z,3.83
2022-08-23T08:01:44.768Z,3.17
2022-08-23T08:04:13.754Z,3.92
2022-08-23T08:06:59.916Z,3.03
2022-08-23T08:09:34.870Z,3.67
2022-08-23T08:12:03.055Z,2.95
2022-08-23T08:14:35.945Z,5.20
2022-08-23T08:17:06.921Z,3.25
2022-08-23T08:19:53.817Z,2.80
2022-08-23T08:22:58.469Z,3.90
2022-08-23T08:25:36.034Z,2.83
2022-08-23T08:28:09.435Z,2.70
2022-08-23T08:30:42.520Z,3.13
2022-08-23T08:33:11.112Z,2.63
2022-08-23T08:35:40.064Z,3.17
2022-08-23T08:38:09.088Z,3.55
2022-08-23T08:40:41.307Z,3.05
2022-08-23T08:43:27.748Z,2.92
2022-08-23T08:46:07.843Z,2.55
2022-08-23T08:48:44.782Z,4.13
2022-08-23T08:51:32.968Z,2.60
2022-08-23T08:54:04.654Z,3.67
2022-08-23T08:56:43.250Z,3.65
2022-08-23T08:59:23.570Z,5.03
2022-08-23T09:01:53.777Z,2.70
2022-08-23T09:04:29.986Z,3.65
2022-08-23T09:07:10.452Z,3.30
2022-08-23T09:10:17.636Z,4.13
2022-08-23T09:13:18.049Z,2.47
2022-08-23T09:15:59.430Z,3.15
2022-08-23T09:18:36.320Z,3.92
2022-08-23T09:21:09.726Z,3.45
2022-08-23T09:23:43.647Z,4.88
2022-08-23T09:26:24.169Z,4.13
2022-08-23T09:28:55.464Z,5.30
2022-08-23T09:31:43.171Z,5.88
2022-08-23T09:34:19.976Z,6.72
2022-08-23T09:37:13.283Z,4.70
2022-08-23T09:39:44.672Z,5.45
2022-08-23T09:42:32.337Z,5.95
2022-08-23T09:45:01.974Z,6.63
2022-08-23T09:47:44.491Z,5.57
2022-08-23T09:50:27.794Z,4.30
2022-08-23T09:53:03.948Z,5.45
2022-08-23T09:55:36.823Z,3.35
2022-08-23T09:58:08.303Z,7.78
2022-08-23T10:00:38.471Z,4.40
2022-08-23T10:03:27.137Z,3.38
2022-08-23T10:06:05.199Z,4.55
2022-08-23T10:08:43.119Z,6.60
2022-08-23T10:11:18.826Z,6.72
2022-08-23T10:13:48.487Z,4.32
2022-08-23T10:16:30.563Z,5.25
2022-08-23T10:19:15.487Z,5.90
2022-08-23T10:21:58.684Z,4.75
2022-08-23T10:24:42.143Z,3.65
2022-08-23T10:27:49.109Z,3.88
2022-08-23T10:30:23.523Z,4.05
2022-08-23T10:33:07.857Z,4.70
2022-08-23T10:35:52.672Z,3.67
2022-08-23T10:38:42.268Z,3.83
2022-08-23T10:41:41.232Z,3.35
2022-08-23T10:44:25.904Z,5.38
2022-08-23T10:47:11.391Z,4.43
2022-08-23T10:49:43.124Z,2.55
2022-08-23T10:52:20.559Z,3.70
2022-08-23T10:55:05.761Z,3.45
2022-08-23T10:57:41.268Z,4.22
2022-08-23T11:00:17.240Z,3.50
2022-08-23T11:02:56.870Z,4.70
2022-08-23T11:05:32.703Z,3.38
2022-08-23T11:08:10.850Z,3.63
2022-08-23T11:10:56.221Z,3.35
2022-08-23T11:13:33.448Z,2.65
2022-08-23T11:16:07.055Z,4.57
2022-08-23T11:18:46.461Z,5.85
2022-08-23T11:21:48.295Z,2.88
2022-08-23T11:24:56.790Z,5.63
2022-08-23T11:27:39.024Z,4.90
2022-08-23T11:30:46.934Z,7.22
2022-08-23T11:33:24.484Z,3.20
2022-08-23T11:36:16.489Z,3.17
2022-08-23T11:39:12.497Z,5.38
2022-08-23T11:42:04.572Z,4.32
2022-08-23T11:44:43.138Z,3.90
2022-08-23T11:47:14.229Z,3.42
2022-08-23T11:50:15.155Z,3.80
2022-08-23T11:53:11.156Z,5.55
2022-08-23T11:56:22.363Z,4.50
2022-08-23T11:59:18.356Z,4.32
2022-08-23T12:01:48.272Z,2.72
2022-08-23T12:04:34.295Z,4.65
2022-08-23T12:07:07.174Z,3.50
2022-08-23T12:09:57.360Z,4.35
2022-08-23T12:12:39.265Z,3.22
2022-08-23T12:15:13.182Z,4.45
2022-08-23T12:18:17.397Z,3.50
2022-08-23T12:20:49.930Z,2.95
2022-08-23T12:23:21.969Z,2.38
2022-08-23T12:26:03.299Z,4.20
2022-08-23T12:28:42.269Z,2.88
2022-08-23T12:31:21.848Z,2.45
2022-08-23T12:34:15.338Z,2.40
2022-08-23T12:36:56.874Z,3.00
2022-08-23T12:39:32.557Z,2.58
2022-08-23T12:42:10.604Z,3.38
2022-08-23T12:44:38.944Z,4.45
2022-08-23T12:47:14.588Z,8.75
2022-08-23T12:49:54.655Z,3.55
2022-08-23T12:52:27.843Z,4.80
2022-08-23T12:54:58.002Z,2.65
2022-08-23T12:57:36.947Z,2.38
2022-08-23T13:00:18.788Z,2.13
2022-08-23T13:02:56.389Z,3.10
2022-08-23T13:05:36.529Z,2.30
2022-08-23T13:08:10.646Z,3.33
2022-08-23T13:10:43.755Z,2.60
2022-08-23T13:13:15.523Z,2.30
2022-08-23T13:15:52.991Z,2.10
2022-08-23T13:18:41.312Z,3.42
2022-08-23T13:21:31.962Z,2.28
2022-08-23T13:24:37.759Z,2.20
2022-08-23T13:27:22.498Z,3.30
2022-08-23T13:29:57.446Z,2.70
2022-08-23T13:32:30.876Z,2.58
2022-08-23T13:35:30.265Z,1.98
2022-08-23T13:38:09.094Z,2.92
2022-08-23T13:40:44.442Z,2.92
2022-08-23T13:43:21.221Z,1.90
2022-08-23T13:45:52.679Z,1.95
2022-08-23T13:48:24.010Z,3.17
2022-08-23T13:50:52.721Z,2.42
2022-08-23T13:53:22.875Z,2.60
2022-08-23T13:55:56.512Z,2.83
2022-08-23T13:58:30.787Z,2.20
2022-08-23T14:01:00.627Z,2.30
2022-08-23T14:03:31.341Z,2.17
2022-08-23T14:05:59.623Z,2.78
2022-08-23T14:08:29.159Z,1.98
2022-08-23T14:10:57.327Z,2.42
2022-08-23T14:13:29.731Z,2.45
2022-08-23T14:21:42.229Z,1.80
2022-08-23T14:24:11.747Z,1.80
2022-08-23T14:26:51.678Z,1.70
2022-08-23T14:29:22.268Z,2.92
2022-08-23T14:31:51.811Z,1.85
2022-08-23T14:34:20.435Z,1.85
2022-08-23T14:39:38.708Z,3.58
2022-08-23T14:42:08.535Z,2.15
2022-08-23T14:44:36.758Z,2.22
2022-08-23T14:47:06.476Z,3.17
2022-08-23T14:49:35.814Z,2.95
2022-08-23T14:52:04.870Z,4.60
2022-08-23T14:54:34.478Z,3.92
2022-08-23T14:57:04.056Z,7.53
2022-08-23T14:59:32.210Z,2.13
2022-08-23T15:02:00.861Z,3.00
2022-08-23T15:04:34.499Z,4.53
2022-08-23T15:07:17.831Z,1.95
2022-08-23T15:09:46.934Z,2.33
2022-08-23T15:15:09.439Z,2.88
2022-08-23T15:17:48.107Z,1.85
2022-08-23T15:20:16.509Z,2.05
2022-08-23T15:22:44.972Z,1.90
2022-08-23T15:25:18.090Z,3.38
2022-08-23T15:27:48.574Z,2.80
2022-08-23T15:30:17.748Z,2.13
2022-08-23T15:32:50.216Z,2.05
2022-08-23T15:35:21.536Z,5.32
2022-08-23T15:37:50.588Z,6.30
2022-08-23T15:40:19.209Z,3.92
2022-08-23T15:42:49.074Z,3.88
2022-08-23T15:45:18.738Z,4.90
2022-08-23T15:47:51.781Z,5.05
2022-08-23T15:50:26.446Z,2.75
2022-08-23T15:52:55.843Z,4.25
2022-08-23T15:55:25.730Z,2.92
2022-08-23T15:57:58.136Z,70.15
2022-08-23T16:00:27.667Z,116.30
2022-08-23T16:03:20.415Z,234.68
2022-08-23T16:05:57.412Z,135.18
2022-08-23T16:08:28.574Z,99.47
2022-08-23T16:10:58.142Z,92.68
2022-08-23T16:13:28.875Z,78.00
2022-08-23T16:15:57.993Z,59.08
2022-08-23T16:18:26.424Z,55.08
2022-08-23T16:20:54.694Z,46.75
2022-08-23T16:23:23.404Z,36.85
2022-08-23T16:25:51.684Z,38.92
2022-08-23T16:28:19.910Z,34.63
2022-08-23T16:30:49.547Z,34.47
2022-08-23T16:33:17.759Z,29.00
2022-08-23T16:35:45.993Z,27.70
2022-08-23T16:38:14.215Z,30.92
2022-08-23T16:40:42.339Z,33.13
2022-08-23T16:43:10.567Z,27.75
2022-08-23T16:45:38.698Z,24.08
2022-08-23T16:48:10.681Z,30.48
2022-08-23T16:50:42.900Z,30.02
2022-08-23T16:53:11.424Z,29.00
2022-08-23T16:55:40.953Z,27.05
2022-08-23T16:58:09.239Z,23.23
2022-08-23T17:00:38.577Z,27.05
2022-08-23T17:03:08.357Z,29.70
2022-08-23T17:05:37.380Z,25.92
2022-08-23T17:08:05.878Z,28.35
2022-08-23T17:10:34.726Z,31.65
2022-08-23T17:13:03.862Z,28.27
2022-08-23T17:15:35.553Z,25.50
2022-08-23T17:18:04.346Z,27.55
2022-08-23T17:20:37.920Z,25.63
2022-08-23T17:23:06.876Z,27.30
2022-08-23T17:25:36.581Z,24.05
2022-08-23T17:28:06.688Z,25.27
2022-08-23T17:30:35.520Z,26.65
2022-08-23T17:33:04.318Z,24.25
2022-08-23T17:35:34.753Z,24.90
2022-08-23T17:38:05.601Z,26.67
2022-08-23T17:40:37.555Z,21.65
2022-08-23T17:43:06.440Z,24.00
2022-08-23T17:45:42.080Z,24.27
2022-08-23T17:48:10.862Z,23.42
2022-08-23T17:50:41.543Z,23.23
2022-08-23T17:53:10.696Z,25.33
2022-08-23T17:55:40.793Z,26.50
2022-08-23T17:58:10.401Z,23.50
2022-08-23T18:00:40.461Z,18.23
2022-08-23T18:03:08.740Z,20.70
2022-08-23T18:05:42.841Z,20.50
2022-08-23T18:08:11.346Z,23.10
2022-08-23T18:10:43.360Z,20.20
2022-08-23T18:13:13.778Z,18.50
2022-08-23T18:15:41.988Z,20.45
2022-08-23T18:18:10.507Z,17.52
2022-08-23T18:20:40.035Z,20.65
2022-08-23T18:23:08.249Z,17.92
2022-08-23T18:25:37.088Z,16.15
2022-08-23T18:28:08.489Z,22.52
2022-08-23T18:30:46.859Z,16.40
2022-08-23T18:33:15.887Z,19.02
2022-08-23T18:35:48.981Z,16.90
2022-08-23T18:38:18.150Z,20.48
2022-08-23T18:40:49.912Z,16.98
2022-08-23T18:43:22.034Z,17.98
2022-08-23T18:45:54.509Z,20.17
2022-08-23T18:48:24.189Z,17.52
2022-08-23T18:50:53.906Z,19.88
2022-08-23T18:53:22.385Z,17.05
2022-08-23T18:55:51.101Z,16.45
2022-08-23T18:58:21.033Z,17.88
2022-08-23T19:00:51.710Z,18.65
2022-08-23T19:03:20.442Z,20.98
2022-08-23T19:05:49.214Z,17.63
2022-08-23T19:08:19.348Z,16.45
2022-08-23T19:10:48.285Z,13.65
2022-08-23T19:13:16.721Z,17.05
2022-08-23T19:15:44.997Z,17.17
2022-08-23T19:18:14.598Z,14.07
2022-08-23T19:20:43.476Z,18.20
2022-08-23T19:23:11.692Z,17.42
2022-08-23T19:25:45.294Z,14.23
2022-08-23T19:28:14.635Z,15.88
2022-08-23T19:30:44.419Z,12.65
2022-08-23T19:33:13.114Z,14.48
2022-08-23T19:35:42.524Z,13.35
2022-08-23T19:38:12.050Z,12.93
2022-08-23T19:40:42.390Z,16.65
2022-08-23T19:43:11.223Z,14.93
2022-08-23T19:45:39.827Z,14.48
2022-08-23T19:48:08.144Z,11.38
2022-08-23T19:50:37.000Z,14.30
2022-08-23T19:53:05.489Z,16.48
2022-08-23T19:55:35.369Z,15.30
2022-08-23T19:58:07.399Z,17.17
2022-08-23T20:00:36.415Z,13.75
2022-08-23T20:03:05.518Z,15.68
2022-08-23T20:05:34.979Z,11.52
2022-08-23T20:08:04.246Z,13.25
2022-08-23T20:10:32.424Z,12.45
2022-08-23T20:13:01.017Z,11.77
2022-08-23T20:15:30.906Z,12.80
2022-08-23T20:17:59.702Z,15.05
2022-08-23T20:20:28.001Z,12.73
2022-08-23T20:23:13.973Z,12.38
2022-08-23T20:25:42.956Z,11.25
2022-08-23T20:28:11.722Z,8.82
2022-08-23T20:30:41.782Z,12.52
2022-08-23T20:33:10.329Z,9.35
2022-08-23T20:35:38.618Z,11.65
2022-08-23T20:38:06.990Z,9.68
2022-08-23T20:40:35.238Z,11.15
2022-08-23T20:43:03.916Z,10.18
2022-08-23T20:45:33.260Z,9.98
2022-08-23T20:48:02.884Z,8.98
2022-08-23T20:50:31.307Z,11.77
2022-08-23T20:52:59.597Z,9.45
2022-08-23T20:55:28.209Z,9.32
2022-08-23T20:57:57.329Z,10.60
2022-08-23T21:00:25.651Z,11.75
2022-08-23T21:02:54.068Z,9.13
2022-08-23T21:05:23.778Z,9.85
2022-08-23T21:07:52.404Z,13.27
2022-08-23T21:10:21.369Z,9.13
2022-08-23T21:12:49.711Z,8.88
2022-08-23T21:15:18.144Z,6.13
2022-08-23T21:17:46.760Z,7.97
2022-08-23T21:20:16.621Z,7.18
2022-08-23T21:22:46.291Z,6.22
2022-08-23T21:25:15.016Z,6.22
2022-08-23T21:27:43.684Z,5.65
2022-08-23T21:30:13.254Z,7.95
2022-08-23T21:32:41.638Z,4.50
2022-08-23T21:35:11.747Z,7.78
2022-08-23T21:37:40.271Z,6.00
2022-08-23T21:40:12.204Z,6.65
2022-08-23T21:42:40.635Z,4.30
2022-08-23T21:45:10.425Z,5.88
2022-08-23T21:47:39.644Z,6.68
2022-08-23T21:50:08.846Z,10.68
2022-08-23T21:52:37.717Z,5.05
2022-08-23T21:55:07.972Z,5.32
2022-08-23T21:57:37.832Z,7.50
2022-08-23T22:00:10.986Z,5.38
2022-08-23T22:02:41.366Z,4.20
2022-08-23T22:05:10.861Z,6.75
2022-08-23T22:07:40.172Z,4.47
2022-08-23T22:10:11.245Z,7.03
2022-08-23T22:12:41.897Z,5.68
2022-08-23T22:15:12.124Z,4.22
2022-08-23T22:17:40.726Z,7.38
2022-08-23T22:20:13.449Z,4.72
2022-08-23T22:22:43.482Z,4.90
2022-08-23T22:25:13.531Z,5.72
2022-08-23T22:27:43.185Z,4.40
2022-08-23T22:30:13.255Z,7.18
2022-08-23T22:32:41.964Z,4.97
2022-08-23T22:35:11.660Z,6.40
2022-08-23T22:37:53.675Z,5.78
2022-08-23T22:40:29.246Z,4.55
2022-08-23T22:42:58.877Z,4.28
2022-08-23T22:45:27.125Z,4.15
2022-08-23T22:47:55.362Z,4.45
2022-08-23T22:50:23.772Z,5.00
2022-08-23T22:52:52.551Z,4.82
2022-08-23T22:55:21.523Z,4.22
2022-08-23T22:57:49.712Z,5.78
2022-08-23T23:00:19.499Z,5.43
2022-08-23T23:02:47.764Z,4.30
2022-08-23T23:05:16.140Z,5.35
2022-08-23T23:08:02.061Z,4.07
2022-08-23T23:10:30.810Z,4.78
2022-08-23T23:12:59.063Z,5.32
2022-08-23T23:15:28.732Z,5.88
2022-08-23T23:17:57.087Z,4.32
2022-08-23T23:20:40.835Z,4.95
2022-08-23T23:23:12.555Z,4.65
2022-08-23T23:25:41.984Z,4.43
2022-08-23T23:28:10.972Z,3.58
2022-08-23T23:30:42.051Z,4.72
2022-08-23T23:33:10.595Z,5.05
2022-08-23T23:35:39.609Z,4.18
2022-08-23T23:38:08.998Z,5.22
2022-08-23T23:40:38.619Z,4.20
2022-08-23T23:43:07.241Z,4.90
2022-08-23T23:45:41.386Z,3.83
2022-08-23T23:48:10.256Z,4.32
2022-08-23T23:50:45.561Z,4.45
2022-08-23T23:53:16.054Z,6.35
2022-08-23T23:55:44.810Z,4.00
2022-08-23T23:58:13.126Z,3.88
